createdAt,value
2019-05-29T00:00:45.997Z,52.43
2019-05-29T00:03:15.490Z,52.40
2019-05-29T00:05:45.431Z,52.42
2019-05-29T00:08:14.955Z,52.57
2019-05-29T00:10:44.538Z,52.29
2019-05-29T00:13:15.205Z,52.17
2019-05-29T00:15:44.765Z,51.92
2019-05-29T00:18:14.616Z,52.13
2019-05-29T00:20:44.254Z,52.34
2019-05-29T00:23:14.687Z,52.19
2019-05-29T00:25:44.270Z,52.20
2019-05-29T00:28:14.873Z,52.38
2019-05-29T00:30:45.644Z,52.40
2019-05-29T00:33:15.395Z,52.61
2019-05-29T00:35:45.139Z,52.75
2019-05-29T00:38:14.828Z,52.84
2019-05-29T00:40:44.330Z,53.25
2019-05-29T00:43:13.853Z,53.33
2019-05-29T00:45:43.342Z,53.25
2019-05-29T00:48:13.984Z,53.26
2019-05-29T00:50:43.789Z,53.18
2019-05-29T00:53:14.292Z,55.16
2019-05-29T00:55:43.852Z,52.10
2019-05-29T00:58:13.392Z,52.12
2019-05-29T01:00:42.995Z,52.26
2019-05-29T01:03:13.630Z,52.40
2019-05-29T01:05:43.293Z,52.91
2019-05-29T01:08:12.769Z,53.00
2019-05-29T01:10:42.346Z,53.20
2019-05-29T01:13:13.053Z,53.36
2019-05-29T01:15:43.737Z,53.89
2019-05-29T01:18:13.914Z,53.85
2019-05-29T01:20:43.417Z,53.96
2019-05-29T01:23:14.130Z,53.80
2019-05-29T01:25:43.783Z,54.51
2019-05-29T01:28:13.276Z,54.43
2019-05-29T01:30:42.775Z,54.42
2019-05-29T01:33:16.931Z,54.07
2019-05-29T01:35:43.500Z,54.16
2019-05-29T01:38:13.002Z,53.87
2019-05-29T01:40:42.876Z,53.69
2019-05-29T01:43:12.378Z,53.86
2019-05-29T01:45:41.940Z,53.76
2019-05-29T01:48:11.449Z,53.92
2019-05-29T01:50:40.948Z,54.10
2019-05-29T01:53:10.437Z,54.21
2019-05-29T01:55:39.939Z,54.31
2019-05-29T01:58:09.443Z,54.87
2019-05-29T02:00:38.976Z,55.03
2019-05-29T02:03:08.524Z,55.09
2019-05-29T02:05:38.041Z,55.09
2019-05-29T02:08:07.607Z,55.23
2019-05-29T02:10:37.140Z,55.43
2019-05-29T02:13:06.634Z,55.64
2019-05-29T02:15:36.220Z,55.56
2019-05-29T02:18:06.315Z,55.99
2019-05-29T02:20:35.846Z,56.15
2019-05-29T02:23:05.454Z,55.77
2019-05-29T02:25:34.966Z,55.62
2019-05-29T02:28:04.489Z,55.46
2019-05-29T02:30:34.010Z,55.52
2019-05-29T02:33:03.571Z,55.57
2019-05-29T02:35:33.097Z,55.59
2019-05-29T02:38:02.611Z,55.43
2019-05-29T02:40:32.126Z,55.48
2019-05-29T02:43:01.617Z,55.42
2019-05-29T02:45:52.078Z,55.72
2019-05-29T02:48:02.576Z,55.66
2019-05-29T02:50:32.081Z,55.33
2019-05-29T02:53:01.586Z,55.53
2019-05-29T02:55:31.133Z,55.61
2019-05-29T02:58:00.800Z,55.40
2019-05-29T03:00:52.548Z,55.35
2019-05-29T03:03:27.461Z,54.70
2019-05-29T03:05:57.137Z,55.09
2019-05-29T03:08:28.915Z,55.56
2019-05-29T03:10:57.848Z,55.54
2019-05-29T03:13:27.818Z,55.65
2019-05-29T03:16:10.839Z,55.75
2019-05-29T03:18:30.407Z,55.76
2019-05-29T03:21:01.876Z,55.52
2019-05-29T03:23:33.233Z,55.22
2019-05-29T03:26:02.591Z,55.22
2019-05-29T03:28:32.942Z,55.86
2019-05-29T03:31:03.297Z,55.52
2019-05-29T03:33:41.058Z,55.71
2019-05-29T03:36:04.363Z,55.85
2019-05-29T03:38:34.942Z,55.73
2019-05-29T03:41:04.779Z,55.59
2019-05-29T03:43:35.941Z,55.36
2019-05-29T03:46:05.519Z,55.52
2019-05-29T03:48:35.031Z,55.75
2019-05-29T03:51:04.545Z,56.09
2019-05-29T03:53:36.147Z,56.82
2019-05-29T03:56:05.268Z,56.34
2019-05-29T03:58:35.296Z,56.42
2019-05-29T04:01:06.387Z,56.40
2019-05-29T04:03:37.699Z,56.62
2019-05-29T04:06:07.234Z,56.61
2019-05-29T04:08:38.519Z,56.95
2019-05-29T04:11:08.346Z,57.03
2019-05-29T04:13:38.775Z,56.91
2019-05-29T04:16:10.466Z,56.88
2019-05-29T04:18:41.083Z,56.58
2019-05-29T04:21:11.349Z,56.73
2019-05-29T04:23:40.928Z,57.05
2019-05-29T04:26:12.825Z,57.19
2019-05-29T04:28:42.864Z,57.75
2019-05-29T04:31:12.393Z,57.86
2019-05-29T04:33:41.926Z,58.09
2019-05-29T04:36:11.439Z,57.79
2019-05-29T04:38:40.943Z,57.90
2019-05-29T04:41:10.447Z,57.93
2019-05-29T04:43:40.099Z,57.51
2019-05-29T04:46:09.610Z,57.41
2019-05-29T04:48:40.460Z,57.20
2019-05-29T04:51:10.227Z,56.51
2019-05-29T04:53:40.100Z,56.64
2019-05-29T04:56:09.654Z,57.02
2019-05-29T04:58:39.251Z,57.69
2019-05-29T05:01:09.770Z,58.17
2019-05-29T05:03:39.517Z,58.29
2019-05-29T05:06:09.063Z,58.17
2019-05-29T05:08:39.775Z,58.30
2019-05-29T05:11:11.769Z,58.60
2019-05-29T05:13:41.307Z,58.67
2019-05-29T05:16:10.895Z,59.06
2019-05-29T05:18:40.418Z,59.14
2019-05-29T05:21:09.929Z,58.15
2019-05-29T05:23:40.558Z,57.76
2019-05-29T05:26:10.444Z,58.28
2019-05-29T05:28:44.030Z,57.47
2019-05-29T05:31:11.210Z,57.06
2019-05-29T05:33:41.094Z,57.42
2019-05-29T05:36:10.697Z,57.28
2019-05-29T05:38:41.051Z,56.52
2019-05-29T05:41:11.078Z,56.83
2019-05-29T05:43:41.402Z,56.83
2019-05-29T05:46:13.018Z,56.06
2019-05-29T05:48:42.552Z,55.46
2019-05-29T05:51:12.051Z,54.60
2019-05-29T05:53:42.415Z,54.17
2019-05-29T05:56:12.012Z,53.31
2019-05-29T05:58:42.282Z,52.54
2019-05-29T06:01:12.196Z,51.19
2019-05-29T06:03:42.465Z,50.98
2019-05-29T06:06:13.193Z,51.03
2019-05-29T06:08:42.784Z,50.27
2019-05-29T06:11:12.377Z,49.25
2019-05-29T06:13:42.753Z,49.00
2019-05-29T06:16:13.429Z,48.81
2019-05-29T06:18:43.268Z,48.37
2019-05-29T06:21:14.249Z,47.81
2019-05-29T06:23:43.909Z,47.77
2019-05-29T06:26:13.922Z,47.25
2019-05-29T06:28:43.795Z,46.04
2019-05-29T06:31:13.292Z,46.87
2019-05-29T06:33:43.949Z,45.63
2019-05-29T06:36:13.694Z,46.54
2019-05-29T06:38:44.299Z,46.14
2019-05-29T06:41:14.111Z,46.04
2019-05-29T06:43:44.321Z,46.71
2019-05-29T06:46:14.121Z,47.03
2019-05-29T06:48:59.040Z,46.77
2019-05-29T06:51:15.800Z,45.68
2019-05-29T06:53:45.338Z,45.52
2019-05-29T06:56:15.911Z,44.78
2019-05-29T06:58:46.634Z,45.47
2019-05-29T07:01:16.128Z,45.38
2019-05-29T07:03:45.641Z,45.05
2019-05-29T07:06:15.171Z,44.38
2019-05-29T07:08:48.045Z,44.54
2019-05-29T07:11:15.836Z,44.61
2019-05-29T07:13:48.490Z,44.08
2019-05-29T07:16:16.567Z,43.70
2019-05-29T07:19:22.983Z,43.72
2019-05-29T07:21:18.364Z,43.33
2019-05-29T07:23:48.746Z,43.07
2019-05-29T07:26:19.602Z,42.70
2019-05-29T07:29:07.647Z,42.93
2019-05-29T07:31:20.413Z,43.49
2019-05-29T07:33:49.922Z,42.87
2019-05-29T07:36:19.425Z,42.79
2019-05-29T07:38:57.743Z,41.91
2019-05-29T07:41:20.161Z,42.07
2019-05-29T07:43:49.676Z,40.87
2019-05-29T07:46:19.193Z,41.38
2019-05-29T07:48:50.295Z,40.44
2019-05-29T07:51:20.218Z,40.69
2019-05-29T07:53:49.740Z,41.01
2019-05-29T07:56:23.069Z,42.36
2019-05-29T07:59:01.789Z,43.75
2019-05-29T08:01:22.717Z,44.16
2019-05-29T08:03:52.425Z,44.84
2019-05-29T08:06:22.059Z,44.52
2019-05-29T08:08:51.629Z,44.62
2019-05-29T08:11:22.080Z,44.37
2019-05-29T08:13:51.626Z,43.78
2019-05-29T08:16:21.188Z,43.37
2019-05-29T08:18:53.030Z,43.79
2019-05-29T08:21:21.846Z,43.33
2019-05-29T08:23:51.365Z,43.86
2019-05-29T08:26:20.916Z,42.31
2019-05-29T08:28:51.159Z,42.24
2019-05-29T08:31:20.796Z,43.29
2019-05-29T08:33:51.247Z,42.65
2019-05-29T08:36:20.877Z,42.87
2019-05-29T08:38:51.909Z,43.74
2019-05-29T08:41:21.560Z,43.13
2019-05-29T08:43:51.097Z,42.78
2019-05-29T08:46:20.591Z,42.45
2019-05-29T08:48:50.246Z,42.77
2019-05-29T08:51:19.735Z,41.67
2019-05-29T08:53:51.963Z,41.36
2019-05-29T08:56:20.520Z,41.14
2019-05-29T08:58:50.653Z,39.66
2019-05-29T09:01:20.312Z,38.95
2019-05-29T09:03:51.274Z,38.98
2019-05-29T09:06:21.929Z,38.33
2019-05-29T09:08:52.859Z,37.53
2019-05-29T09:11:22.797Z,38.16
2019-05-29T09:13:52.341Z,39.65
2019-05-29T09:16:22.971Z,38.34
2019-05-29T09:18:52.536Z,40.10
2019-05-29T09:21:22.882Z,39.57
2019-05-29T09:23:53.314Z,39.64
2019-05-29T09:26:25.552Z,39.29
2019-05-29T09:28:54.048Z,39.58
2019-05-29T09:31:23.941Z,39.44
2019-05-29T09:33:53.401Z,39.03
2019-05-29T09:36:22.986Z,36.82
2019-05-29T09:38:53.128Z,37.11
2019-05-29T09:41:23.587Z,37.32
2019-05-29T09:43:59.007Z,37.04
2019-05-29T09:46:25.788Z,37.86
2019-05-29T09:48:55.332Z,39.06
2019-05-29T09:51:24.839Z,38.28
2019-05-29T09:53:55.919Z,38.59
2019-05-29T09:56:25.578Z,38.85
2019-05-29T09:58:56.376Z,36.83
2019-05-29T10:01:26.553Z,37.70
2019-05-29T10:03:58.841Z,36.44
2019-05-29T10:06:27.267Z,36.87
2019-05-29T10:08:57.976Z,36.00
2019-05-29T10:11:27.603Z,37.84
2019-05-29T10:13:58.600Z,40.27
2019-05-29T10:16:28.313Z,38.49
2019-05-29T10:18:59.763Z,37.48
2019-05-29T10:21:40.030Z,37.30
2019-05-29T10:24:02.194Z,38.70
2019-05-29T10:26:32.159Z,40.89
2019-05-29T10:29:08.249Z,41.61
2019-05-29T10:31:32.907Z,41.11
2019-05-29T10:34:02.438Z,39.95
2019-05-29T10:36:31.986Z,38.55
2019-05-29T10:39:01.796Z,38.45
2019-05-29T10:41:32.531Z,38.13
2019-05-29T10:44:02.054Z,38.38
2019-05-29T10:46:31.567Z,39.86
2019-05-29T10:49:04.609Z,38.54
2019-05-29T10:51:33.434Z,38.62
2019-05-29T10:54:03.027Z,36.58
2019-05-29T10:56:32.559Z,36.11
2019-05-29T10:59:02.081Z,37.63
2019-05-29T11:01:31.608Z,37.01
2019-05-29T11:04:01.125Z,36.75
2019-05-29T11:06:30.632Z,35.07
2019-05-29T11:09:00.147Z,35.65
2019-05-29T11:11:29.697Z,36.15
2019-05-29T11:13:59.265Z,36.37
2019-05-29T11:16:28.768Z,36.21
2019-05-29T11:18:58.356Z,36.40
2019-05-29T11:21:27.909Z,36.26
2019-05-29T11:23:58.438Z,36.38
2019-05-29T11:26:27.977Z,35.86
2019-05-29T11:28:58.823Z,35.81
2019-05-29T11:31:29.359Z,35.61
2019-05-29T11:33:59.294Z,35.54
2019-05-29T11:36:28.930Z,35.00
2019-05-29T11:39:03.174Z,34.54
2019-05-29T11:41:29.721Z,36.40
2019-05-29T11:43:59.235Z,35.48
2019-05-29T11:46:28.790Z,35.31
2019-05-29T11:48:59.378Z,37.41
2019-05-29T11:51:28.986Z,35.24
2019-05-29T11:53:59.580Z,37.20
2019-05-29T11:56:29.194Z,36.25
2019-05-29T11:58:59.018Z,37.59
2019-05-29T12:01:28.569Z,35.44
2019-05-29T12:04:18.150Z,34.89
2019-05-29T12:06:29.348Z,34.26
2019-05-29T12:08:59.872Z,35.03
2019-05-29T12:11:29.396Z,32.79
2019-05-29T12:14:00.563Z,33.60
2019-05-29T12:16:30.143Z,34.78
2019-05-29T12:18:59.929Z,34.14
2019-05-29T12:21:29.480Z,34.61
2019-05-29T12:24:00.185Z,35.26
2019-05-29T12:26:29.792Z,35.31
2019-05-29T12:29:07.301Z,34.38
2019-05-29T12:31:31.579Z,34.17
2019-05-29T12:34:12.844Z,33.51
2019-05-29T12:36:32.298Z,34.36
2019-05-29T12:39:02.287Z,35.18
2019-05-29T12:41:33.059Z,35.95
2019-05-29T12:44:03.664Z,35.83
2019-05-29T12:46:34.225Z,34.82
2019-05-29T12:49:03.853Z,33.55
2019-05-29T12:51:33.352Z,32.90
2019-05-29T12:54:04.985Z,34.92
2019-05-29T12:56:34.056Z,34.62
2019-05-29T12:59:04.651Z,34.91
2019-05-29T13:01:34.238Z,34.46
2019-05-29T13:04:04.723Z,33.56
2019-05-29T13:06:34.672Z,33.81
2019-05-29T13:09:06.901Z,32.99
2019-05-29T13:11:36.414Z,34.13
2019-05-29T13:14:06.123Z,34.46
2019-05-29T13:16:35.625Z,33.40
2019-05-29T13:19:05.560Z,38.01
2019-05-29T13:21:35.057Z,35.38
2019-05-29T13:24:09.845Z,34.77
2019-05-29T13:26:35.971Z,34.34
2019-05-29T13:29:06.093Z,34.58
2019-05-29T13:31:35.677Z,33.31
2019-05-29T13:34:07.193Z,34.96
2019-05-29T13:36:37.002Z,32.58
2019-05-29T13:39:07.880Z,34.24
2019-05-29T13:41:37.368Z,32.46
2019-05-29T13:44:07.136Z,32.72
2019-05-29T13:46:37.687Z,34.70
2019-05-29T13:49:07.363Z,34.65
2019-05-29T13:51:36.966Z,32.52
2019-05-29T13:54:14.033Z,32.80
2019-05-29T13:56:38.709Z,34.05
2019-05-29T13:59:08.537Z,32.67
2019-05-29T14:01:39.037Z,33.78
2019-05-29T14:04:08.769Z,32.46
2019-05-29T14:06:39.392Z,31.57
2019-05-29T14:09:10.067Z,31.48
2019-05-29T14:11:39.806Z,32.97
2019-05-29T14:14:12.874Z,34.99
2019-05-29T14:16:40.658Z,34.19
2019-05-29T14:19:10.167Z,31.74
2019-05-29T14:21:39.747Z,31.30
2019-05-29T14:24:26.717Z,34.27
2019-05-29T14:26:40.494Z,33.24
2019-05-29T14:29:10.162Z,31.19
2019-05-29T14:31:39.708Z,33.83
2019-05-29T14:34:09.598Z,31.66
2019-05-29T14:36:40.374Z,30.25
2019-05-29T14:39:10.113Z,29.87
2019-05-29T14:41:39.596Z,29.79
2019-05-29T14:44:10.021Z,31.92
2019-05-29T14:46:39.591Z,31.22
2019-05-29T14:49:10.475Z,30.86
2019-05-29T14:51:40.317Z,31.95
2019-05-29T14:54:11.075Z,33.02
2019-05-29T14:56:40.735Z,32.82
2019-05-29T14:59:11.129Z,33.20
2019-05-29T15:01:41.845Z,31.93
2019-05-29T15:04:13.182Z,31.14
2019-05-29T15:06:42.635Z,31.81
2019-05-29T15:09:13.859Z,32.13
2019-05-29T15:11:43.882Z,31.33
2019-05-29T15:14:14.434Z,30.93
2019-05-29T15:16:44.069Z,30.02
2019-05-29T15:19:13.548Z,30.14
2019-05-29T15:21:43.048Z,30.11
2019-05-29T15:24:13.652Z,31.67
2019-05-29T15:26:43.259Z,30.89
2019-05-29T15:29:14.732Z,31.43
2019-05-29T15:31:43.965Z,30.86
2019-05-29T15:34:14.454Z,31.96
2019-05-29T15:36:44.153Z,33.03
2019-05-29T15:39:14.699Z,32.82
2019-05-29T15:41:44.529Z,30.34
2019-05-29T15:44:15.019Z,30.43
2019-05-29T15:46:44.688Z,31.18
2019-05-29T15:49:15.252Z,31.46
2019-05-29T15:51:48.719Z,30.29
2019-05-29T15:54:18.201Z,30.87
2019-05-29T15:56:47.705Z,29.84
2019-05-29T15:59:19.171Z,29.42
2019-05-29T16:01:48.420Z,32.35
2019-05-29T16:04:18.167Z,30.85
2019-05-29T16:06:47.592Z,31.71
2019-05-29T16:09:18.548Z,30.58
2019-05-29T16:11:48.302Z,29.43
2019-05-29T16:14:19.023Z,29.71
2019-05-29T16:16:48.803Z,30.42
2019-05-29T16:19:18.424Z,31.12
2019-05-29T16:21:47.862Z,31.25
2019-05-29T16:24:17.387Z,30.31
2019-05-29T16:26:47.023Z,29.60
2019-05-29T16:29:19.231Z,31.40
2019-05-29T16:31:47.794Z,31.89
2019-05-29T16:34:18.954Z,32.48
2019-05-29T16:36:48.586Z,32.91
2019-05-29T16:39:19.688Z,31.97
2019-05-29T16:41:49.588Z,32.99
2019-05-29T16:44:24.309Z,31.24
2019-05-29T16:46:50.403Z,31.41
2019-05-29T16:49:21.279Z,32.21
2019-05-29T16:51:50.864Z,32.58
2019-05-29T16:54:21.359Z,32.19
2019-05-29T16:56:50.888Z,30.99
2019-05-29T16:59:21.344Z,29.97
2019-05-29T17:01:50.983Z,30.23
2019-05-29T17:04:21.521Z,31.07
2019-05-29T17:06:52.143Z,30.81
2019-05-29T17:09:22.352Z,29.96
2019-05-29T17:11:52.010Z,33.22
2019-05-29T17:14:22.725Z,33.16
2019-05-29T17:16:52.934Z,31.84
2019-05-29T17:19:23.095Z,30.10
2019-05-29T17:21:52.722Z,31.45
2019-05-29T17:24:23.015Z,33.49
2019-05-29T17:26:52.709Z,33.95
2019-05-29T17:29:22.898Z,33.63
2019-05-29T17:31:52.482Z,34.06
2019-05-29T17:34:23.100Z,33.99
2019-05-29T17:36:52.673Z,33.81
2019-05-29T17:39:23.072Z,33.71
2019-05-29T17:41:52.794Z,35.06
2019-05-29T17:44:23.361Z,33.87
2019-05-29T17:46:53.062Z,34.29
2019-05-29T17:49:33.569Z,33.74
2019-05-29T17:51:54.803Z,32.84
2019-05-29T17:54:24.306Z,32.07
2019-05-29T17:56:54.210Z,31.41
2019-05-29T17:59:24.151Z,31.37
2019-05-29T18:01:53.755Z,30.07
2019-05-29T18:04:24.830Z,29.00
2019-05-29T18:06:56.539Z,29.63
2019-05-29T18:09:27.969Z,29.03
2019-05-29T18:11:56.853Z,29.19
2019-05-29T18:14:27.577Z,30.60
2019-05-29T18:16:57.239Z,30.78
2019-05-29T18:19:27.987Z,30.93
2019-05-29T18:21:58.212Z,30.50
2019-05-29T18:24:28.122Z,31.30
2019-05-29T18:26:59.137Z,31.78
2019-05-29T18:29:29.619Z,31.99
2019-05-29T18:31:59.382Z,32.24
2019-05-29T18:34:29.557Z,32.31
2019-05-29T18:36:59.306Z,32.42
2019-05-29T18:39:28.806Z,31.97
2019-05-29T18:41:58.385Z,32.30
2019-05-29T18:44:28.951Z,32.90
2019-05-29T18:46:58.628Z,33.12
2019-05-29T18:49:28.653Z,33.70
2019-05-29T18:52:00.481Z,33.70
2019-05-29T18:54:29.998Z,33.23
2019-05-29T18:57:14.742Z,33.25
2019-05-29T18:59:31.734Z,33.51
2019-05-29T19:02:01.448Z,34.07
2019-05-29T19:04:31.936Z,34.17
2019-05-29T19:07:01.755Z,34.61
2019-05-29T19:09:31.969Z,34.64
2019-05-29T19:12:01.636Z,34.94
2019-05-29T19:14:32.412Z,35.23
2019-05-29T19:17:02.197Z,35.49
2019-05-29T19:19:32.569Z,35.84
2019-05-29T19:22:02.087Z,36.18
2019-05-29T19:24:32.893Z,36.26
2019-05-29T19:27:02.525Z,36.55
2019-05-29T19:29:33.371Z,36.71
2019-05-29T19:32:02.894Z,37.03
2019-05-29T19:34:33.626Z,37.04
2019-05-29T19:37:03.166Z,37.37
2019-05-29T19:39:34.091Z,38.25
2019-05-29T19:42:03.887Z,38.11
2019-05-29T19:44:34.564Z,38.17
2019-05-29T19:47:04.256Z,38.27
2019-05-29T19:49:35.206Z,38.11
2019-05-29T19:52:04.974Z,37.79
2019-05-29T19:54:35.612Z,37.91
2019-05-29T19:57:05.461Z,37.74
2019-05-29T19:59:36.170Z,37.51
2019-05-29T20:02:05.838Z,37.14
2019-05-29T20:04:35.350Z,37.02
2019-05-29T20:07:04.985Z,36.96
2019-05-29T20:09:35.422Z,36.93
2019-05-29T20:12:06.028Z,36.72
2019-05-29T20:14:35.876Z,36.64
2019-05-29T20:17:05.404Z,36.60
2019-05-29T20:19:38.834Z,36.58
2019-05-29T20:22:06.338Z,36.64
2019-05-29T20:24:36.957Z,36.93
2019-05-29T20:27:07.386Z,37.17
2019-05-29T20:29:36.926Z,37.40
2019-05-29T20:32:06.389Z,37.52
2019-05-29T20:34:36.890Z,37.65
2019-05-29T20:37:06.495Z,37.93
2019-05-29T20:39:36.317Z,38.18
2019-05-29T20:42:05.863Z,38.25
2019-05-29T20:44:36.669Z,38.48
2019-05-29T20:47:06.300Z,38.54
2019-05-29T20:49:38.005Z,39.01
2019-05-29T20:52:07.565Z,39.91
2019-05-29T20:54:37.649Z,41.02
2019-05-29T20:57:11.615Z,41.46
2019-05-29T20:59:42.173Z,41.80
2019-05-29T21:02:12.091Z,41.39
2019-05-29T21:04:42.819Z,40.83
2019-05-29T21:07:12.334Z,40.59
2019-05-29T21:09:43.190Z,41.07
2019-05-29T21:12:12.974Z,40.93
2019-05-29T21:14:43.429Z,41.17
2019-05-29T21:17:13.714Z,41.51
2019-05-29T21:19:44.540Z,42.35
2019-05-29T21:22:14.186Z,42.85
2019-05-29T21:24:49.318Z,43.02
2019-05-29T21:27:14.941Z,42.80
2019-05-29T21:29:45.533Z,42.41
2019-05-29T21:32:18.315Z,42.63
2019-05-29T21:34:47.875Z,42.49
2019-05-29T21:37:17.566Z,42.47
2019-05-29T21:39:47.272Z,41.85
2019-05-29T21:42:16.791Z,42.48
2019-05-29T21:44:47.140Z,42.41
2019-05-29T21:47:16.664Z,42.13
2019-05-29T21:49:47.417Z,42.82
2019-05-29T21:52:17.114Z,42.79
2019-05-29T21:54:47.646Z,42.82
2019-05-29T21:57:17.213Z,42.49
2019-05-29T21:59:47.949Z,42.39
2019-05-29T22:02:17.612Z,42.96
2019-05-29T22:04:48.550Z,43.31
2019-05-29T22:07:18.273Z,43.49
2019-05-29T22:09:48.475Z,42.80
2019-05-29T22:12:18.069Z,42.92
2019-05-29T22:14:47.577Z,43.06
2019-05-29T22:17:17.086Z,43.22
2019-05-29T22:19:46.730Z,44.49
2019-05-29T22:22:16.270Z,42.84
2019-05-29T22:24:45.819Z,42.22
2019-05-29T22:27:15.323Z,42.24
2019-05-29T22:29:44.845Z,42.89
2019-05-29T22:32:14.320Z,43.68
2019-05-29T22:34:43.840Z,43.25
2019-05-29T22:37:13.413Z,43.22
2019-05-29T22:39:42.934Z,43.53
2019-05-29T22:42:12.417Z,43.33
2019-05-29T22:44:41.910Z,43.50
2019-05-29T22:47:11.434Z,43.82
2019-05-29T22:49:40.947Z,43.31
2019-05-29T22:52:10.427Z,43.46
2019-05-29T22:54:39.917Z,43.47
2019-05-29T22:57:09.426Z,43.81
2019-05-29T22:59:38.919Z,44.59
2019-05-29T23:02:08.429Z,44.19
2019-05-29T23:04:37.948Z,44.42
2019-05-29T23:07:07.455Z,44.55
2019-05-29T23:09:37.928Z,44.27
2019-05-29T23:12:07.423Z,44.11
2019-05-29T23:14:36.906Z,43.91
2019-05-29T23:17:06.435Z,44.03
2019-05-29T23:19:35.950Z,43.84
2019-05-29T23:22:05.474Z,43.55
2019-05-29T23:24:34.974Z,43.91
2019-05-29T23:27:04.579Z,44.12
2019-05-29T23:29:47.938Z,43.97
2019-05-29T23:32:05.359Z,44.22
2019-05-29T23:34:34.875Z,44.11
2019-05-29T23:37:04.364Z,44.35
2019-05-29T23:39:34.466Z,44.19
2019-05-29T23:42:03.967Z,44.46
2019-05-29T23:44:33.483Z,44.88
2019-05-29T23:47:04.159Z,44.82
2019-05-29T23:49:33.801Z,44.80
2019-05-29T23:52:04.916Z,44.86
2019-05-29T23:54:34.515Z,44.78
2019-05-29T23:57:04.257Z,44.77
2019-05-29T23:59:33.732Z,44.41
